createdAt,value
2023-01-02T00:01:32.775Z,67.94
2023-01-02T00:04:05.109Z,68.05
2023-01-02T00:06:38.969Z,68.07
2023-01-02T00:09:12.267Z,68.02
2023-01-02T00:11:44.533Z,67.99
2023-01-02T00:14:16.755Z,68.01
2023-01-02T00:16:49.011Z,68.12
2023-01-02T00:19:21.190Z,68.11
2023-01-02T00:21:53.392Z,68.22
2023-01-02T00:24:26.037Z,68.14
2023-01-02T00:26:58.210Z,68.32
2023-01-02T00:29:30.403Z,68.24
2023-01-02T00:32:02.691Z,68.35
2023-01-02T00:34:34.915Z,68.19
2023-01-02T00:37:07.195Z,68.24
2023-01-02T00:39:39.471Z,68.27
2023-01-02T00:42:11.673Z,68.30
2023-01-02T00:44:44.051Z,68.28
2023-01-02T00:47:16.317Z,68.40
2023-01-02T00:49:48.595Z,68.35
2023-01-02T00:52:20.826Z,68.46
2023-01-02T00:54:53.056Z,68.38
2023-01-02T00:57:25.353Z,68.40
2023-01-02T00:59:57.908Z,68.44
2023-01-02T01:02:30.251Z,68.40
2023-01-02T01:05:02.675Z,68.40
2023-01-02T01:07:34.925Z,68.47
2023-01-02T01:10:08.701Z,68.47
2023-01-02T01:12:40.940Z,68.52
2023-01-02T01:15:16.136Z,68.48
2023-01-02T01:17:48.383Z,68.54
2023-01-02T01:20:20.821Z,68.52
2023-01-02T01:22:53.104Z,68.58
2023-01-02T01:25:25.335Z,68.71
2023-01-02T01:27:57.640Z,68.68
2023-01-02T01:30:31.950Z,68.69
2023-01-02T01:33:04.276Z,68.79
2023-01-02T01:35:37.459Z,68.85
2023-01-02T01:38:09.687Z,68.76
2023-01-02T01:40:42.202Z,68.80
2023-01-02T01:43:17.782Z,68.84
2023-01-02T01:45:50.022Z,68.78
2023-01-02T01:48:22.434Z,68.68
2023-01-02T01:50:55.050Z,68.78
2023-01-02T01:53:27.672Z,68.73
2023-01-02T01:56:04.318Z,68.72
2023-01-02T01:58:43.223Z,68.74
2023-01-02T02:01:17.986Z,68.85
2023-01-02T02:03:52.694Z,68.76
2023-01-02T02:06:24.935Z,68.75
2023-01-02T02:09:02.949Z,68.76
2023-01-02T02:11:35.735Z,68.66
2023-01-02T02:14:08.002Z,68.74
2023-01-02T02:16:48.682Z,68.72
2023-01-02T02:19:44.326Z,68.72
2023-01-02T02:22:57.143Z,68.70
2023-01-02T02:25:56.209Z,68.75
2023-01-02T02:29:06.118Z,68.79
2023-01-02T02:31:49.541Z,68.73
2023-01-02T02:34:28.437Z,68.74
2023-01-02T02:37:10.519Z,68.71
2023-01-02T02:39:53.466Z,68.63
2023-01-02T02:42:34.724Z,68.72
2023-01-02T02:45:15.481Z,68.60
2023-01-02T02:47:56.760Z,68.61
2023-01-02T02:50:35.078Z,68.60
2023-01-02T02:53:11.600Z,68.69
2023-01-02T02:55:49.163Z,68.81
2023-01-02T02:58:23.593Z,68.76
2023-01-02T03:01:05.226Z,68.75
2023-01-02T03:03:37.679Z,68.76
2023-01-02T03:06:25.567Z,68.74
2023-01-02T03:09:12.296Z,68.70
2023-01-02T03:11:55.593Z,68.79
2023-01-02T03:14:39.630Z,68.74
2023-01-02T03:17:21.381Z,68.71
2023-01-02T03:19:59.942Z,68.67
2023-01-02T03:22:37.975Z,68.85
2023-01-02T03:25:14.023Z,68.71
2023-01-02T03:27:49.672Z,68.83
2023-01-02T03:30:23.786Z,68.79
2023-01-02T03:33:01.784Z,68.89
2023-01-02T03:35:38.810Z,68.86
2023-01-02T03:38:15.666Z,68.89
2023-01-02T03:40:54.875Z,68.97
2023-01-02T03:43:31.968Z,69.01
2023-01-02T03:46:12.392Z,69.03
2023-01-02T03:48:50.563Z,69.08
2023-01-02T03:51:23.017Z,69.15
2023-01-02T03:53:55.875Z,69.21
2023-01-02T03:56:35.420Z,69.15
2023-01-02T03:59:17.006Z,69.33
2023-01-02T04:01:55.809Z,69.29
2023-01-02T04:04:38.775Z,69.30
2023-01-02T04:07:20.007Z,69.27
2023-01-02T04:09:53.448Z,69.31
2023-01-02T04:12:29.330Z,69.26
2023-01-02T04:15:05.178Z,69.29
2023-01-02T04:17:37.826Z,69.20
2023-01-02T04:20:14.656Z,69.31
2023-01-02T04:22:53.641Z,69.26
2023-01-02T04:25:31.178Z,69.36
2023-01-02T04:28:09.023Z,69.29
2023-01-02T04:30:47.881Z,69.40
2023-01-02T04:33:23.589Z,69.41
2023-01-02T04:35:55.918Z,69.42
2023-01-02T04:38:28.079Z,69.28
2023-01-02T04:41:00.386Z,69.29
2023-01-02T04:43:32.635Z,69.28
2023-01-02T04:46:05.039Z,69.25
2023-01-02T04:48:37.256Z,69.23
2023-01-02T04:51:09.559Z,69.19
2023-01-02T04:53:41.827Z,69.21
2023-01-02T04:56:13.981Z,69.07
2023-01-02T04:58:47.617Z,68.98
2023-01-02T05:01:22.087Z,69.02
2023-01-02T05:03:54.441Z,68.99
2023-01-02T05:06:26.689Z,69.06
2023-01-02T05:08:59.664Z,69.04
2023-01-02T05:11:31.886Z,69.08
2023-01-02T05:14:07.614Z,69.16
2023-01-02T05:16:40.345Z,69.09
2023-01-02T05:19:12.895Z,69.18
2023-01-02T05:22:02.661Z,69.20
2023-01-02T05:24:35.185Z,69.27
2023-01-02T05:27:07.574Z,69.22
2023-01-02T05:29:39.738Z,69.27
2023-01-02T05:32:11.925Z,69.25
2023-01-02T05:34:44.214Z,69.24
2023-01-02T05:37:16.486Z,69.05
2023-01-02T05:39:48.664Z,69.15
2023-01-02T05:42:20.880Z,69.15
2023-01-02T05:44:53.166Z,69.12
2023-01-02T05:47:25.364Z,69.18
2023-01-02T05:49:57.578Z,69.16
2023-01-02T05:52:29.773Z,69.13
2023-01-02T05:55:01.975Z,69.13
2023-01-02T05:57:35.297Z,69.20
2023-01-02T06:00:09.245Z,69.20
2023-01-02T06:02:47.148Z,69.17
2023-01-02T06:05:20.679Z,69.17
2023-01-02T06:07:52.881Z,69.20
2023-01-02T06:10:25.053Z,69.10
2023-01-02T06:12:57.355Z,69.21
2023-01-02T06:15:29.583Z,69.15
2023-01-02T06:18:02.431Z,69.19
2023-01-02T06:20:34.702Z,69.14
2023-01-02T06:23:06.974Z,69.13
2023-01-02T06:25:39.207Z,69.15
2023-01-02T06:28:11.875Z,69.16
2023-01-02T06:30:44.181Z,69.14
2023-01-02T06:33:16.372Z,69.23
2023-01-02T06:35:48.564Z,69.15
2023-01-02T06:38:20.729Z,69.26
2023-01-02T06:40:57.323Z,69.30
2023-01-02T06:43:30.320Z,69.26
2023-01-02T06:46:04.451Z,69.29
2023-01-02T06:48:37.195Z,69.28
2023-01-02T06:51:12.022Z,69.29
2023-01-02T06:53:45.054Z,69.26
2023-01-02T06:56:19.790Z,69.33
2023-01-02T06:58:52.051Z,69.27
2023-01-02T07:01:25.150Z,69.29
2023-01-02T07:03:57.588Z,69.25
2023-01-02T07:06:29.869Z,69.29
2023-01-02T07:09:02.072Z,69.35
2023-01-02T07:11:35.884Z,69.28
2023-01-02T07:14:08.112Z,69.25
2023-01-02T07:16:40.344Z,69.34
2023-01-02T07:19:12.751Z,69.41
2023-01-02T07:21:45.174Z,69.29
2023-01-02T07:24:17.833Z,69.37
2023-01-02T07:26:50.222Z,69.33
2023-01-02T07:29:22.483Z,69.25
2023-01-02T07:31:55.035Z,69.18
2023-01-02T07:34:27.354Z,69.26
2023-01-02T07:36:59.506Z,69.15
2023-01-02T07:39:31.708Z,69.08
2023-01-02T07:42:03.959Z,69.01
2023-01-02T07:44:36.254Z,68.95
2023-01-02T07:47:08.505Z,68.89
2023-01-02T07:49:40.675Z,68.76
2023-01-02T07:52:13.261Z,68.83
2023-01-02T07:54:45.582Z,68.60
2023-01-02T07:57:17.785Z,68.59
2023-01-02T07:59:50.345Z,68.55
2023-01-02T08:02:22.773Z,68.41
2023-01-02T08:04:55.138Z,68.43
2023-01-02T08:07:27.312Z,68.43
2023-01-02T08:09:59.502Z,68.50
2023-01-02T08:12:31.695Z,68.41
2023-01-02T08:15:03.868Z,68.30
2023-01-02T08:17:36.132Z,68.13
2023-01-02T08:20:11.412Z,68.15
2023-01-02T08:22:43.685Z,67.91
2023-01-02T08:25:15.984Z,67.89
2023-01-02T08:27:48.197Z,67.83
2023-01-02T08:30:20.574Z,67.86
2023-01-02T08:32:52.745Z,67.65
2023-01-02T08:35:37.295Z,67.69
2023-01-02T08:38:10.470Z,67.64
2023-01-02T08:40:42.659Z,67.42
2023-01-02T08:43:16.320Z,67.48
2023-01-02T08:45:48.805Z,67.18
2023-01-02T08:48:21.730Z,67.13
2023-01-02T08:50:54.188Z,67.17
2023-01-02T08:53:26.382Z,67.12
2023-01-02T08:56:17.395Z,67.09
2023-01-02T08:58:53.030Z,66.74
2023-01-02T09:01:25.217Z,66.66
2023-01-02T09:03:58.473Z,66.75
2023-01-02T09:06:32.861Z,66.59
2023-01-02T09:09:11.003Z,66.44
2023-01-02T09:11:50.268Z,66.31
2023-01-02T09:14:23.562Z,66.13
2023-01-02T09:16:58.178Z,66.04
2023-01-02T09:19:30.998Z,66.04
2023-01-02T09:22:04.337Z,65.56
2023-01-02T09:24:36.533Z,65.60
2023-01-02T09:27:08.695Z,65.57
2023-01-02T09:29:40.904Z,65.15
2023-01-02T09:32:13.223Z,64.94
2023-01-02T09:34:50.479Z,65.07
2023-01-02T09:37:22.945Z,64.88
2023-01-02T09:39:55.133Z,64.79
2023-01-02T09:42:27.798Z,64.78
2023-01-02T09:45:08.558Z,64.67
2023-01-02T09:47:42.965Z,64.32
2023-01-02T09:50:19.839Z,64.23
2023-01-02T09:52:57.422Z,63.90
2023-01-02T09:55:46.608Z,64.05
2023-01-02T09:58:32.729Z,63.82
2023-01-02T10:01:10.776Z,63.62
2023-01-02T10:03:52.893Z,63.45
2023-01-02T10:06:28.519Z,63.09
2023-01-02T10:09:10.548Z,62.71
2023-01-02T10:11:55.006Z,62.82
2023-01-02T10:14:44.158Z,62.42
2023-01-02T10:17:18.427Z,62.37
2023-01-02T10:19:57.741Z,62.29
2023-01-02T10:22:37.259Z,62.15
2023-01-02T10:25:15.958Z,62.00
2023-01-02T10:27:53.375Z,61.88
2023-01-02T10:30:28.438Z,61.83
2023-01-02T10:33:05.593Z,61.55
2023-01-02T10:35:43.161Z,61.22
2023-01-02T10:38:17.817Z,61.06
2023-01-02T10:40:52.963Z,60.95
2023-01-02T10:43:25.194Z,60.87
2023-01-02T10:45:57.898Z,60.72
2023-01-02T10:48:34.987Z,60.46
2023-01-02T10:51:13.815Z,60.03
2023-01-02T10:53:59.895Z,59.86
2023-01-02T10:56:32.498Z,59.88
2023-01-02T10:59:05.567Z,59.82
2023-01-02T11:01:53.260Z,59.65
2023-01-02T11:04:28.596Z,59.64
2023-01-02T11:07:02.938Z,59.36
2023-01-02T11:09:37.182Z,58.86
2023-01-02T11:12:15.096Z,59.07
2023-01-02T11:14:47.418Z,58.98
2023-01-02T11:17:21.838Z,58.80
2023-01-02T11:19:56.363Z,58.75
2023-01-02T11:22:39.300Z,58.75
2023-01-02T11:25:22.242Z,58.48
2023-01-02T11:27:57.965Z,58.39
2023-01-02T11:30:37.565Z,58.40
2023-01-02T11:33:20.951Z,58.08
2023-01-02T11:35:56.437Z,58.00
2023-01-02T11:38:41.440Z,57.81
2023-01-02T11:41:46.091Z,57.66
2023-01-02T11:44:23.374Z,57.69
2023-01-02T11:46:57.506Z,57.71
2023-01-02T11:49:37.041Z,57.43
2023-01-02T11:52:14.194Z,57.43
2023-01-02T11:54:53.940Z,57.24
2023-01-02T11:57:37.370Z,57.20
2023-01-02T12:00:15.960Z,57.07
2023-01-02T12:02:50.387Z,57.16
2023-01-02T12:05:39.064Z,57.01
2023-01-02T12:08:22.742Z,56.92
2023-01-02T12:11:06.345Z,56.75
2023-01-02T12:13:54.788Z,56.81
2023-01-02T12:16:38.299Z,56.78
2023-01-02T12:19:36.855Z,56.78
2023-01-02T12:22:30.326Z,56.70
2023-01-02T12:25:24.783Z,56.62
2023-01-02T12:28:04.106Z,56.44
2023-01-02T12:30:46.025Z,56.51
2023-01-02T12:33:41.646Z,56.54
2023-01-02T12:36:37.147Z,56.45
2023-01-02T12:39:42.987Z,56.40
2023-01-02T12:42:31.881Z,56.38
2023-01-02T12:45:04.662Z,56.16
2023-01-02T12:47:48.152Z,56.45
2023-01-02T12:50:34.721Z,56.27
2023-01-02T12:53:22.719Z,56.20
2023-01-02T12:56:07.060Z,56.31
2023-01-02T12:58:56.938Z,56.27
2023-01-02T13:01:36.888Z,56.13
2023-01-02T13:04:16.545Z,56.21
2023-01-02T13:06:59.264Z,56.11
2023-01-02T13:09:36.852Z,56.03
2023-01-02T13:12:14.879Z,56.02
2023-01-02T13:14:52.168Z,56.03
2023-01-02T13:17:47.363Z,56.15
2023-01-02T13:20:34.096Z,55.95
2023-01-02T13:23:24.883Z,55.80
2023-01-02T13:26:01.043Z,55.87
2023-01-02T13:28:34.088Z,55.85
2023-01-02T13:31:44.827Z,55.82
2023-01-02T13:34:11.056Z,55.93
2023-01-02T13:36:46.201Z,55.93
2023-01-02T13:39:22.522Z,55.85
2023-01-02T13:42:14.638Z,55.87
2023-01-02T13:44:49.703Z,55.93
2023-01-02T13:47:33.842Z,56.06
2023-01-02T13:50:15.717Z,55.96
2023-01-02T13:53:01.403Z,56.01
2023-01-02T13:55:36.542Z,55.97
2023-01-02T13:58:39.891Z,55.95
2023-01-02T14:01:48.833Z,56.06
2023-01-02T14:04:39.885Z,56.12
2023-01-02T14:07:49.321Z,56.11
2023-01-02T14:10:34.198Z,56.14
2023-01-02T14:13:24.231Z,56.12
2023-01-02T14:16:21.191Z,56.23
2023-01-02T14:19:25.721Z,56.12
2023-01-02T14:22:11.851Z,56.21
2023-01-02T14:24:43.607Z,56.27
2023-01-02T14:27:27.354Z,56.29
2023-01-02T14:30:05.051Z,56.29
2023-01-02T14:32:42.403Z,56.32
2023-01-02T14:35:31.505Z,56.37
2023-01-02T14:38:19.061Z,56.42
2023-01-02T14:40:52.306Z,56.52
2023-01-02T14:43:31.826Z,56.54
2023-01-02T14:46:14.508Z,56.58
2023-01-02T14:48:55.142Z,56.60
2023-01-02T14:51:36.989Z,56.67
2023-01-02T14:54:16.919Z,56.73
2023-01-02T14:56:54.366Z,56.73
2023-01-02T14:59:31.698Z,56.85
2023-01-02T15:02:09.935Z,56.89
2023-01-02T15:04:47.601Z,56.87
2023-01-02T15:07:28.829Z,56.96
2023-01-02T15:10:05.781Z,56.99
2023-01-02T15:13:05.097Z,57.06
2023-01-02T15:15:41.637Z,57.17
2023-01-02T15:18:21.039Z,57.21
2023-01-02T15:20:54.542Z,57.20
2023-01-02T15:23:28.364Z,57.34
2023-01-02T15:26:31.907Z,57.27
2023-01-02T15:28:59.798Z,57.33
2023-01-02T15:31:32.309Z,57.32
2023-01-02T15:34:04.498Z,57.39
2023-01-02T15:36:40.062Z,57.53
2023-01-02T15:39:18.495Z,57.49
2023-01-02T15:41:54.278Z,57.60
2023-01-02T15:44:43.222Z,57.71
2023-01-02T15:47:18.194Z,57.87
2023-01-02T15:49:52.460Z,57.89
2023-01-02T15:52:27.310Z,57.99
2023-01-02T15:55:00.405Z,57.99
2023-01-02T15:57:33.655Z,58.04
2023-01-02T16:00:27.545Z,58.06
2023-01-02T16:02:59.910Z,58.17
2023-01-02T16:05:45.342Z,58.33
2023-01-02T16:08:23.301Z,58.24
2023-01-02T16:11:01.552Z,58.29
2023-01-02T16:13:54.884Z,58.41
2023-01-02T16:16:35.398Z,58.42
2023-01-02T16:19:07.561Z,58.58
2023-01-02T16:21:39.937Z,58.56
2023-01-02T16:24:18.006Z,58.59
2023-01-02T16:26:50.827Z,58.67
2023-01-02T16:29:26.580Z,58.73
2023-01-02T16:32:00.688Z,58.83
2023-01-02T16:34:38.107Z,58.97
2023-01-02T16:37:36.057Z,58.93
2023-01-02T16:41:00.298Z,59.01
2023-01-02T16:43:41.258Z,59.11
2023-01-02T16:46:17.369Z,59.10
2023-01-02T16:48:49.722Z,59.20
2023-01-02T16:51:22.157Z,59.30
2023-01-02T16:53:54.417Z,59.30
2023-01-02T16:56:26.724Z,59.48
2023-01-02T16:58:58.994Z,59.55
2023-01-02T17:01:31.314Z,59.50
2023-01-02T17:04:03.633Z,59.56
2023-01-02T17:06:36.735Z,59.67
2023-01-02T17:09:11.484Z,59.73
2023-01-02T17:12:00.356Z,59.74
2023-01-02T17:14:34.731Z,59.83
2023-01-02T17:17:06.889Z,59.95
2023-01-02T17:19:39.117Z,59.85
2023-01-02T17:22:11.320Z,60.07
2023-01-02T17:24:43.746Z,60.01
2023-01-02T17:27:16.251Z,60.06
2023-01-02T17:29:48.425Z,60.23
2023-01-02T17:32:20.668Z,60.13
2023-01-02T17:34:53.356Z,60.37
2023-01-02T17:37:25.732Z,60.28
2023-01-02T17:39:58.076Z,60.28
2023-01-02T17:42:31.272Z,60.36
2023-01-02T17:45:03.935Z,60.37
2023-01-02T17:50:28.414Z,60.50
2023-01-02T17:53:01.120Z,60.58
2023-01-02T17:55:33.342Z,60.75
2023-01-02T17:58:05.717Z,60.76
2023-01-02T18:00:37.945Z,60.96
2023-01-02T18:03:10.206Z,60.99
2023-01-02T18:05:42.522Z,60.91
2023-01-02T18:08:14.854Z,60.87
2023-01-02T18:10:47.192Z,61.01
2023-01-02T18:13:19.374Z,61.09
2023-01-02T18:15:52.068Z,61.18
2023-01-02T18:18:26.094Z,61.28
2023-01-02T18:20:58.653Z,61.29
2023-01-02T18:23:30.845Z,61.23
2023-01-02T18:26:06.644Z,61.39
2023-01-02T18:28:41.526Z,61.44
2023-01-02T18:31:19.047Z,61.46
2023-01-02T18:33:51.747Z,61.47
2023-01-02T18:36:28.366Z,61.58
2023-01-02T18:39:21.077Z,61.55
2023-01-02T18:41:54.611Z,61.56
2023-01-02T18:44:31.566Z,61.71
2023-01-02T18:47:21.270Z,61.57
2023-01-02T18:49:54.330Z,61.70
2023-01-02T18:52:31.630Z,61.68
2023-01-02T18:55:17.396Z,61.81
2023-01-02T18:57:56.248Z,61.74
2023-01-02T19:00:30.846Z,61.85
2023-01-02T19:03:05.736Z,61.77
2023-01-02T19:05:40.828Z,61.83
2023-01-02T19:08:23.732Z,62.06
2023-01-02T19:10:58.045Z,62.00
2023-01-02T19:13:32.885Z,61.97
2023-01-02T19:16:08.262Z,62.06
2023-01-02T19:18:43.167Z,61.97
2023-01-02T19:21:25.563Z,62.08
2023-01-02T19:24:00.793Z,62.04
2023-01-02T19:26:37.497Z,62.19
2023-01-02T19:29:19.373Z,62.35
2023-01-02T19:31:55.232Z,62.31
2023-01-02T19:34:45.336Z,62.25
2023-01-02T19:37:31.503Z,62.37
2023-01-02T19:40:08.183Z,62.34
2023-01-02T19:42:43.010Z,62.23
2023-01-02T19:45:18.463Z,62.11
2023-01-02T19:47:51.689Z,62.19
2023-01-02T19:50:25.931Z,62.28
2023-01-02T19:52:58.275Z,62.23
2023-01-02T19:55:30.480Z,62.37
2023-01-02T19:58:02.763Z,62.34
2023-01-02T20:00:35.400Z,62.33
2023-01-02T20:03:07.782Z,62.21
2023-01-02T20:05:40.104Z,62.28
2023-01-02T20:08:12.352Z,62.26
2023-01-02T20:10:44.550Z,62.47
2023-01-02T20:13:16.759Z,62.68
2023-01-02T20:15:48.995Z,62.91
2023-01-02T20:18:21.213Z,63.01
2023-01-02T20:20:53.510Z,63.07
2023-01-02T20:23:25.763Z,63.17
2023-01-02T20:25:57.914Z,63.19
2023-01-02T20:28:31.772Z,63.29
2023-01-02T20:31:04.063Z,63.25
2023-01-02T20:33:36.424Z,63.49
2023-01-02T20:36:13.747Z,63.40
2023-01-02T20:38:46.305Z,63.55
2023-01-02T20:41:18.555Z,63.47
2023-01-02T20:43:50.752Z,63.51
2023-01-02T20:46:22.974Z,63.46
2023-01-02T20:48:55.189Z,63.57
2023-01-02T20:51:27.432Z,63.59
2023-01-02T20:54:00.488Z,63.69
2023-01-02T20:56:33.013Z,63.70
2023-01-02T20:59:05.438Z,63.71
2023-01-02T21:01:37.756Z,63.72
2023-01-02T21:04:10.262Z,63.65
2023-01-02T21:06:42.545Z,63.57
2023-01-02T21:09:14.800Z,63.74
2023-01-02T21:11:47.039Z,63.62
2023-01-02T21:14:19.413Z,63.65
2023-01-02T21:16:51.644Z,63.66
2023-01-02T21:19:23.907Z,63.71
2023-01-02T21:21:56.090Z,63.63
2023-01-02T21:24:28.451Z,63.73
2023-01-02T21:27:00.714Z,63.67
2023-01-02T21:29:32.872Z,63.78
2023-01-02T21:32:05.147Z,64.02
2023-01-02T21:34:37.357Z,64.15
2023-01-02T21:37:09.562Z,64.17
2023-01-02T21:39:41.857Z,64.05
2023-01-02T21:42:19.860Z,64.01
2023-01-02T21:44:52.029Z,63.98
2023-01-02T21:47:24.309Z,63.97
2023-01-02T21:49:56.671Z,63.80
2023-01-02T21:52:28.973Z,63.94
2023-01-02T21:55:01.308Z,64.04
2023-01-02T21:58:03.223Z,64.21
2023-01-02T22:00:29.381Z,64.28
2023-01-02T22:03:01.715Z,64.38
2023-01-02T22:05:34.210Z,64.17
2023-01-02T22:08:06.675Z,64.27
2023-01-02T22:10:39.290Z,64.57
2023-01-02T22:13:11.459Z,64.56
2023-01-02T22:15:45.770Z,64.71
2023-01-02T22:18:18.240Z,64.68
2023-01-02T22:20:50.442Z,64.82
2023-01-02T22:23:22.606Z,64.64
2023-01-02T22:25:54.811Z,64.57
2023-01-02T22:28:27.144Z,64.84
2023-01-02T22:30:59.419Z,64.84
2023-01-02T22:33:31.700Z,64.86
2023-01-02T22:36:03.861Z,64.80
2023-01-02T22:38:43.856Z,64.65
2023-01-02T22:41:29.734Z,64.75
2023-01-02T22:44:03.510Z,64.63
2023-01-02T22:46:40.221Z,64.72
2023-01-02T22:49:16.277Z,64.92
2023-01-02T22:52:06.686Z,65.08
2023-01-02T22:54:39.910Z,65.20
2023-01-02T22:57:16.080Z,65.18
2023-01-02T22:59:48.445Z,65.17
2023-01-02T23:02:22.562Z,65.12
2023-01-02T23:04:54.784Z,65.13
2023-01-02T23:07:26.996Z,65.06
2023-01-02T23:09:59.308Z,64.94
2023-01-02T23:12:31.435Z,64.88
2023-01-02T23:15:03.630Z,64.95
2023-01-02T23:17:53.179Z,64.87
2023-01-02T23:20:25.591Z,64.92
2023-01-02T23:22:57.759Z,64.79
2023-01-02T23:25:30.171Z,64.90
2023-01-02T23:28:02.384Z,64.88
2023-01-02T23:30:34.620Z,65.04
2023-01-02T23:33:06.935Z,65.33
2023-01-02T23:35:39.169Z,65.39
2023-01-02T23:38:12.051Z,65.57
2023-01-02T23:40:44.356Z,65.51
2023-01-02T23:43:18.009Z,65.63
2023-01-02T23:45:50.317Z,65.67
2023-01-02T23:48:22.989Z,65.62
2023-01-02T23:51:00.881Z,65.65
2023-01-02T23:53:34.471Z,65.66
2023-01-02T23:56:12.229Z,65.67
2023-01-02T23:58:44.553Z,65.64
